17:20
Airports
Links
Donate
Help keep this website running!
PayPal
Bitcoin
METAR
NTAA 211700Z 08009KT 9999 FEW025 27/21 Q1011 NOSIG
Current Weather Conditions at NTAA
VFR 17:00:00 21-11-17
Altimeter:29.85 hg
Temp:27.0°c 81°f
Dew point:21.0°c 70°f
Wind:9 knots, 10.4 mph, 5 m/s, from 80°
Visibility:6.21 statute miles
2500(FEW) A few
No significant weather changes expected within 2 hours.
Past METAR reports
VFR 16:43:00 21-11-17
Altimeter:29.85 hg
Temp:26.0°c 79°f
Dew point:21.0°c 70°f
Wind:6 knots, 6.9 mph, 3 m/s, from 70°
Visibility:6.21 statute miles
2500(FEW) A few
No significant weather changes expected within 2 hours.
NTAA 211643Z 07006KT 9999 FEW025 26/21 Q1011 NOSIG
VFR 16:00:00 21-11-17
Altimeter:29.85 hg
Temp:24.0°c 75°f
Dew point:22.0°c 72°f
Wind:2 knots, 2.3 mph, 1 m/s,
Variable direction
Visibility:6.21 statute miles
2500(FEW) A few
No significant weather changes expected within 2 hours.
NTAA 211600Z VRB02KT 9999 FEW025 24/22 Q1011 NOSIG
VFR 15:30:00 21-11-17
Automated station, no observer
Altimeter:29.82 hg
Temp:23.0°c 73°f
Dew point:21.0°c 70°f
Wind:4 knots, 4.6 mph, 2 m/s, from 110°
Visibility:6.21 statute miles
5600(BKN) Broken
NTAA 211530Z AUTO 11004KT 9999 BKN056/// 23/21 Q1010
VFR 15:00:00 21-11-17
Automated station, no observer
Altimeter:29.82 hg
Temp:23.0°c 73°f
Dew point:21.0°c 70°f
Wind:4 knots, 4.6 mph, 2 m/s, from 80°
Visibility:6.21 statute miles
5800(FEW) A few
NTAA 211500Z AUTO 08004KT 9999 FEW058/// 23/21 Q1010
VFR 14:30:00 21-11-17
Automated station, no observer
Altimeter:29.82 hg
Temp:24.0°c 75°f
Dew point:21.0°c 70°f
Wind:3 knots, 3.5 mph, 2 m/s, from 170°
Visibility:6.21 statute miles
(CLR) Clear
NTAA 211430Z AUTO 17003KT 9999 NCD 24/21 Q1010
VFR 14:00:00 21-11-17
Automated station, no observer
Altimeter:29.82 hg
Temp:24.0°c 75°f
Dew point:21.0°c 70°f
Wind:3 knots, 3.5 mph, 2 m/s, from 130°
Visibility:6.21 statute miles
(CLR) Clear
NTAA 211400Z AUTO 13003KT 9999 NCD 24/21 Q1010
TAF
TAF NTAA 211700Z 2118/2224 VRB03KT 9999 FEW020 SCT060 TEMPO 2121/2203 04013KT
Forecast at NTAA
18:00 21-11-17 to 00:00 23-11-17
Wind:3 Knots from 360°
Visibility:6.21 statute miles
2000FEW A few
6000SCT Scattered
TEMPO 21:00 21-11-17 to 03:00 22-11-17
Wind:13 Knots from 40°